createdAt,value
2017-09-25T00:01:51.291Z,31.10
2017-09-25T00:04:18.731Z,30.90
2017-09-25T00:06:46.937Z,31.60
2017-09-25T00:09:14.380Z,28.57
2017-09-25T00:11:41.813Z,38.73
2017-09-25T00:14:10.029Z,34.30
2017-09-25T00:16:37.461Z,35.17
2017-09-25T00:19:04.900Z,31.83
2017-09-25T00:21:33.095Z,27.80
2017-09-25T00:24:00.524Z,31.63
2017-09-25T00:26:28.728Z,34.33
2017-09-25T00:28:56.164Z,36.50
2017-09-25T00:31:24.377Z,43.43
2017-09-25T00:33:51.809Z,34.17
2017-09-25T00:36:19.235Z,32.93
2017-09-25T00:38:46.672Z,39.27
2017-09-25T00:41:14.104Z,36.73
2017-09-25T00:43:41.528Z,35.00
2017-09-25T00:46:09.747Z,30.13
2017-09-25T00:48:37.179Z,28.40
2017-09-25T00:51:04.609Z,27.90
2017-09-25T00:53:44.511Z,35.00
2017-09-25T00:56:11.959Z,31.03
2017-09-25T00:58:39.392Z,31.60
2017-09-25T01:01:14.473Z,38.60
2017-09-25T01:03:53.765Z,44.90
2017-09-25T01:06:25.860Z,42.00
2017-09-25T01:08:53.298Z,40.80
2017-09-25T01:11:20.732Z,40.60
2017-09-25T01:13:48.160Z,42.03
2017-09-25T01:16:15.599Z,36.77
2017-09-25T01:18:43.042Z,37.40
2017-09-25T01:21:10.476Z,46.83
2017-09-25T01:23:37.911Z,37.67
2017-09-25T01:26:06.122Z,35.40
2017-09-25T01:28:33.556Z,43.77
2017-09-25T01:31:00.983Z,36.67
2017-09-25T01:33:29.192Z,36.13
2017-09-25T01:35:56.624Z,41.57
2017-09-25T01:38:24.827Z,36.53
2017-09-25T01:40:52.278Z,34.93
2017-09-25T01:43:20.472Z,38.10
2017-09-25T01:45:47.910Z,34.50
2017-09-25T01:48:15.344Z,43.03
2017-09-25T01:50:43.537Z,40.93
2017-09-25T01:53:10.976Z,36.60
2017-09-25T01:55:39.240Z,35.53
2017-09-25T01:58:06.684Z,35.80
2017-09-25T02:00:34.119Z,41.43
2017-09-25T02:03:01.609Z,42.70
2017-09-25T02:05:29.029Z,38.63
2017-09-25T02:07:56.472Z,37.20
2017-09-25T02:10:23.907Z,36.20
2017-09-25T02:12:52.105Z,36.70
2017-09-25T02:15:19.537Z,36.17
2017-09-25T02:17:46.981Z,30.50
2017-09-25T02:20:15.272Z,29.40
2017-09-25T02:22:42.722Z,27.53
2017-09-25T02:25:10.915Z,33.80
2017-09-25T02:27:38.360Z,37.67
2017-09-25T02:30:05.801Z,32.83
2017-09-25T02:32:34.000Z,27.60
2017-09-25T02:35:01.440Z,33.37
2017-09-25T02:37:29.648Z,31.90
2017-09-25T02:39:57.083Z,30.43
2017-09-25T02:42:24.514Z,34.67
2017-09-25T02:44:51.964Z,31.27
2017-09-25T02:47:19.402Z,37.90
2017-09-25T02:49:46.835Z,34.63
2017-09-25T02:52:14.277Z,34.00
2017-09-25T02:54:41.716Z,31.83
2017-09-25T02:57:09.157Z,32.40
2017-09-25T02:59:36.596Z,34.27
2017-09-25T03:02:04.032Z,38.53
2017-09-25T03:04:31.524Z,30.93
2017-09-25T03:06:59.736Z,31.10
2017-09-25T03:09:27.176Z,32.77
2017-09-25T03:11:54.629Z,35.03
2017-09-25T03:14:22.139Z,27.30
2017-09-25T03:16:49.651Z,27.83
2017-09-25T03:19:17.886Z,30.57
2017-09-25T03:21:45.329Z,30.43
2017-09-25T03:24:12.781Z,30.93
2017-09-25T03:26:40.294Z,34.60
2017-09-25T03:29:08.505Z,32.93
2017-09-25T03:31:35.952Z,34.23
2017-09-25T03:34:03.389Z,25.73
2017-09-25T03:36:30.825Z,29.80
2017-09-25T03:38:59.056Z,40.47
2017-09-25T03:41:26.581Z,32.90
2017-09-25T03:43:54.016Z,34.67
2017-09-25T03:46:22.224Z,33.23
2017-09-25T03:48:49.647Z,32.07
2017-09-25T03:51:17.869Z,37.07
2017-09-25T03:53:45.314Z,34.73
2017-09-25T03:56:12.773Z,32.73
2017-09-25T03:58:40.208Z,38.83
2017-09-25T04:01:07.657Z,36.60
2017-09-25T04:03:35.117Z,32.20
2017-09-25T04:06:02.565Z,32.80
2017-09-25T04:08:30.008Z,34.53
2017-09-25T04:10:57.456Z,37.37
2017-09-25T04:13:24.905Z,33.63
2017-09-25T04:15:52.346Z,38.70
2017-09-25T04:18:20.550Z,32.57
2017-09-25T04:20:47.988Z,32.67
2017-09-25T04:23:15.438Z,31.93
2017-09-25T04:25:42.892Z,31.37
2017-09-25T04:28:10.328Z,32.33
2017-09-25T04:30:37.769Z,29.50
2017-09-25T04:33:05.960Z,33.47
2017-09-25T04:35:33.401Z,31.00
2017-09-25T04:38:00.838Z,31.80
2017-09-25T04:40:28.274Z,33.47
2017-09-25T04:42:55.714Z,26.50
2017-09-25T04:45:23.158Z,33.23
2017-09-25T04:47:50.588Z,32.70
2017-09-25T04:50:18.064Z,28.00
2017-09-25T04:52:45.501Z,30.73
2017-09-25T04:55:15.000Z,27.20
2017-09-25T04:57:43.214Z,24.60
2017-09-25T05:00:10.650Z,28.33
2017-09-25T05:02:38.090Z,28.73
2017-09-25T05:05:06.357Z,32.17
2017-09-25T05:07:34.572Z,39.30
2017-09-25T05:10:02.005Z,39.47
2017-09-25T05:12:29.454Z,30.63
2017-09-25T05:14:57.660Z,36.30
2017-09-25T05:17:25.101Z,33.10
2017-09-25T05:19:52.546Z,35.83
2017-09-25T05:22:20.761Z,38.50
2017-09-25T05:24:48.188Z,39.30
2017-09-25T05:27:15.624Z,37.97
2017-09-25T05:29:43.825Z,33.63
2017-09-25T05:32:11.276Z,36.90
2017-09-25T05:34:38.752Z,33.10
2017-09-25T05:37:06.180Z,35.70
2017-09-25T05:39:34.441Z,33.90
2017-09-25T05:42:02.662Z,37.03
2017-09-25T05:44:30.086Z,31.00
2017-09-25T05:47:05.484Z,33.17
2017-09-25T05:49:32.928Z,27.30
2017-09-25T05:52:00.382Z,30.07
2017-09-25T05:54:27.800Z,25.47
2017-09-25T05:56:55.252Z,23.63
2017-09-25T05:59:23.448Z,25.47
2017-09-25T06:01:50.885Z,22.90
2017-09-25T06:04:26.289Z,31.27
2017-09-25T06:06:56.254Z,27.80
2017-09-25T06:09:23.682Z,28.53
2017-09-25T06:11:51.123Z,29.50
2017-09-25T06:14:18.594Z,25.17
2017-09-25T06:16:46.029Z,29.40
2017-09-25T06:19:13.476Z,37.00
2017-09-25T06:21:40.918Z,31.13
2017-09-25T06:24:08.360Z,34.20
2017-09-25T06:26:35.797Z,34.60
2017-09-25T06:29:04.020Z,32.53
2017-09-25T06:31:33.477Z,28.67
2017-09-25T06:34:00.918Z,34.10
2017-09-25T06:36:28.358Z,32.57
2017-09-25T06:38:55.814Z,34.10
2017-09-25T06:41:23.245Z,31.10
2017-09-25T06:43:50.691Z,32.37
2017-09-25T06:46:18.125Z,30.90
2017-09-25T06:48:45.564Z,33.50
2017-09-25T06:51:13.776Z,30.93
2017-09-25T06:53:41.203Z,30.73
2017-09-25T06:56:09.413Z,28.23
2017-09-25T06:58:36.872Z,30.53
2017-09-25T07:01:04.309Z,31.93
2017-09-25T07:03:31.760Z,30.70
2017-09-25T07:05:59.208Z,31.43
2017-09-25T07:08:27.407Z,32.47
2017-09-25T07:10:54.849Z,29.20
2017-09-25T07:13:22.306Z,30.63
2017-09-25T07:15:50.498Z,24.80
2017-09-25T07:18:17.923Z,28.73
2017-09-25T07:20:46.248Z,27.73
2017-09-25T07:23:13.691Z,26.30
2017-09-25T07:25:41.219Z,24.67
2017-09-25T07:28:09.424Z,24.93
2017-09-25T07:30:36.863Z,23.17
2017-09-25T07:33:04.292Z,23.60
2017-09-25T07:35:31.735Z,19.20
2017-09-25T07:37:59.171Z,20.27
2017-09-25T07:40:26.692Z,20.13
2017-09-25T07:42:54.127Z,19.20
2017-09-25T07:45:21.664Z,27.93
2017-09-25T07:47:49.098Z,17.07
2017-09-25T07:50:17.531Z,16.73
2017-09-25T07:52:45.741Z,16.60
2017-09-25T07:55:16.728Z,11.03
2017-09-25T07:57:44.176Z,15.03
2017-09-25T08:00:11.619Z,13.80
2017-09-25T08:02:39.054Z,9.87
2017-09-25T08:05:06.489Z,10.73
2017-09-25T08:07:33.929Z,10.37
2017-09-25T08:10:02.129Z,10.40
2017-09-25T08:12:29.563Z,11.93
2017-09-25T08:14:57.757Z,13.47
2017-09-25T08:17:25.188Z,9.50
2017-09-25T08:19:53.465Z,10.50
2017-09-25T08:22:21.758Z,9.13
2017-09-25T08:24:49.188Z,10.73
2017-09-25T08:27:16.630Z,9.13
2017-09-25T08:29:44.058Z,14.27
2017-09-25T08:32:11.492Z,10.37
2017-09-25T08:34:38.917Z,8.07
2017-09-25T08:37:07.125Z,10.00
2017-09-25T08:39:34.591Z,10.60
2017-09-25T08:42:02.040Z,11.00
2017-09-25T08:44:29.474Z,11.30
2017-09-25T08:46:57.669Z,9.83
2017-09-25T08:49:25.103Z,11.50
2017-09-25T08:51:53.315Z,14.80
2017-09-25T08:54:20.736Z,11.10
2017-09-25T08:56:48.176Z,10.60
2017-09-25T08:59:15.601Z,12.50
2017-09-25T09:01:43.041Z,8.97
2017-09-25T09:04:10.473Z,10.13
2017-09-25T09:06:37.908Z,11.50
2017-09-25T09:09:05.347Z,11.30
2017-09-25T09:11:32.785Z,10.97
2017-09-25T09:14:00.233Z,9.83
2017-09-25T09:16:27.667Z,9.97
2017-09-25T09:18:55.098Z,8.70
2017-09-25T09:21:23.294Z,9.77
2017-09-25T09:23:50.725Z,8.37
2017-09-25T09:26:18.926Z,8.30
2017-09-25T09:28:46.422Z,9.03
2017-09-25T09:31:13.865Z,12.67
2017-09-25T09:33:42.086Z,10.37
2017-09-25T09:36:09.521Z,10.50
2017-09-25T09:38:36.956Z,8.23
2017-09-25T09:41:04.389Z,9.97
2017-09-25T09:43:31.834Z,15.73
2017-09-25T09:46:00.030Z,9.40
2017-09-25T09:48:27.470Z,10.10
2017-09-25T09:50:54.892Z,8.80
2017-09-25T09:53:22.324Z,9.20
2017-09-25T09:55:50.837Z,8.90
2017-09-25T09:58:19.344Z,10.23
2017-09-25T10:00:46.774Z,9.80
2017-09-25T10:03:14.228Z,8.03
2017-09-25T10:05:42.749Z,7.90
2017-09-25T10:08:10.187Z,7.10
2017-09-25T10:10:38.396Z,11.07
2017-09-25T10:13:05.838Z,9.73
2017-09-25T10:15:33.288Z,7.20
2017-09-25T10:18:00.725Z,10.33
2017-09-25T10:20:28.941Z,7.00
2017-09-25T10:22:56.371Z,6.70
2017-09-25T10:25:23.804Z,8.00
2017-09-25T10:27:51.241Z,8.30
2017-09-25T10:30:18.677Z,8.73
2017-09-25T10:32:46.112Z,7.90
2017-09-25T10:35:13.559Z,9.03
2017-09-25T10:37:40.991Z,6.50
2017-09-25T10:40:08.440Z,9.23
2017-09-25T10:42:35.868Z,9.17
2017-09-25T10:45:03.309Z,8.13
2017-09-25T10:47:30.748Z,7.10
2017-09-25T10:49:58.190Z,11.83
2017-09-25T10:52:26.444Z,9.23
2017-09-25T10:54:53.885Z,7.30
2017-09-25T10:57:21.325Z,6.87
2017-09-25T10:59:48.771Z,5.67
2017-09-25T11:02:16.196Z,6.10
2017-09-25T11:04:44.401Z,6.87
2017-09-25T11:07:11.828Z,6.30
2017-09-25T11:09:40.042Z,6.90
2017-09-25T11:12:08.315Z,8.40
2017-09-25T11:14:35.750Z,7.07
2017-09-25T11:17:03.183Z,7.43
2017-09-25T11:19:31.386Z,7.70
2017-09-25T11:22:00.800Z,6.50
2017-09-25T11:24:28.252Z,7.40
2017-09-25T11:26:55.693Z,4.90
2017-09-25T11:29:23.121Z,6.60
2017-09-25T11:31:50.936Z,6.70
2017-09-25T11:34:18.362Z,6.00
2017-09-25T11:36:46.565Z,6.27
2017-09-25T11:39:14.016Z,6.00
2017-09-25T11:41:41.450Z,6.07
2017-09-25T11:44:09.637Z,5.70
2017-09-25T11:46:37.072Z,5.93
2017-09-25T11:49:05.283Z,6.23
2017-09-25T11:51:32.708Z,5.77
2017-09-25T11:54:00.912Z,5.77
2017-09-25T11:56:28.353Z,9.93
2017-09-25T11:58:55.779Z,7.77
2017-09-25T12:01:23.229Z,8.20
2017-09-25T12:03:50.653Z,7.70
2017-09-25T12:06:18.083Z,6.03
2017-09-25T12:08:45.517Z,6.07
2017-09-25T12:11:13.718Z,4.60
2017-09-25T12:13:41.141Z,8.47
2017-09-25T12:16:08.609Z,4.90
2017-09-25T12:18:36.035Z,5.93
2017-09-25T12:21:03.525Z,6.40
2017-09-25T12:23:31.741Z,5.30
2017-09-25T12:25:59.182Z,5.57
2017-09-25T12:28:26.613Z,5.57
2017-09-25T12:30:54.805Z,5.80
2017-09-25T12:33:22.248Z,8.20
2017-09-25T12:35:50.456Z,5.37
2017-09-25T12:38:17.897Z,6.37
2017-09-25T12:40:45.325Z,4.50
2017-09-25T12:43:13.536Z,5.50
2017-09-25T12:45:40.961Z,7.60
2017-09-25T12:48:09.182Z,5.50
2017-09-25T12:50:36.613Z,6.33
2017-09-25T12:53:04.048Z,4.90
2017-09-25T12:55:32.248Z,5.37
2017-09-25T12:57:59.713Z,5.63
2017-09-25T13:00:27.136Z,6.53
2017-09-25T13:02:55.335Z,5.80
2017-09-25T13:05:22.774Z,7.20
2017-09-25T13:07:50.968Z,7.23
2017-09-25T13:10:18.395Z,6.73
2017-09-25T13:12:46.609Z,6.03
2017-09-25T13:15:14.045Z,6.63
2017-09-25T13:17:42.263Z,5.90
2017-09-25T13:20:09.705Z,5.80
2017-09-25T13:22:37.140Z,5.77
2017-09-25T13:25:04.564Z,8.53
2017-09-25T13:27:32.000Z,8.00
2017-09-25T13:29:59.451Z,5.53
2017-09-25T13:32:26.860Z,6.23
2017-09-25T13:34:54.305Z,6.60
2017-09-25T13:37:22.502Z,6.50
2017-09-25T13:39:49.937Z,6.57
2017-09-25T13:42:18.158Z,5.50
2017-09-25T13:44:45.607Z,7.57
2017-09-25T13:47:13.040Z,6.43
2017-09-25T13:49:40.460Z,6.20
2017-09-25T13:52:07.922Z,5.83
2017-09-25T13:54:35.357Z,5.77
2017-09-25T13:57:02.793Z,6.33
2017-09-25T14:04:38.154Z,7.50
2017-09-25T14:07:05.584Z,7.83
2017-09-25T14:09:33.777Z,7.50
2017-09-25T14:12:01.341Z,9.47
2017-09-25T14:14:28.768Z,12.87
2017-09-25T14:16:57.041Z,7.33
2017-09-25T14:19:25.234Z,6.37
2017-09-25T14:21:53.435Z,7.20
2017-09-25T14:24:20.862Z,6.30
2017-09-25T14:26:49.057Z,7.93
2017-09-25T14:29:16.506Z,6.00
2017-09-25T14:31:43.933Z,5.57
2017-09-25T14:34:11.359Z,8.93
2017-09-25T14:36:38.811Z,5.53
2017-09-25T14:39:06.229Z,6.73
2017-09-25T14:41:33.665Z,6.67
2017-09-25T14:44:01.864Z,6.50
2017-09-25T14:46:29.327Z,6.77
2017-09-25T14:48:59.812Z,6.73
2017-09-25T14:51:27.280Z,6.50
2017-09-25T14:53:54.693Z,7.20
2017-09-25T14:56:22.137Z,6.20
2017-09-25T14:58:49.564Z,6.80
2017-09-25T15:01:17.769Z,6.77
2017-09-25T15:03:46.131Z,6.80
2017-09-25T15:06:13.556Z,9.93
2017-09-25T15:08:42.755Z,5.90
2017-09-25T15:11:10.182Z,6.87
2017-09-25T15:13:37.625Z,25.87
2017-09-25T15:16:05.061Z,6.23
2017-09-25T15:18:32.492Z,6.57
2017-09-25T15:21:00.685Z,6.73
2017-09-25T15:23:28.130Z,5.83
2017-09-25T15:25:57.313Z,9.10
2017-09-25T15:28:25.509Z,7.00
2017-09-25T15:30:52.940Z,7.63
2017-09-25T15:33:21.340Z,5.63
2017-09-25T15:35:49.540Z,7.20
2017-09-25T15:38:17.985Z,6.50
2017-09-25T15:40:45.412Z,7.83
2017-09-25T15:43:12.861Z,7.90
2017-09-25T15:45:41.144Z,10.13
2017-09-25T15:48:09.064Z,7.73
2017-09-25T15:50:37.513Z,7.43
2017-09-25T15:53:04.947Z,7.30
2017-09-25T15:55:32.375Z,9.10
2017-09-25T15:57:59.815Z,11.13
2017-09-25T16:00:27.256Z,8.90
2017-09-25T16:02:55.444Z,8.77
2017-09-25T16:05:23.025Z,8.93
2017-09-25T16:07:50.468Z,7.27
2017-09-25T16:10:17.900Z,10.07
2017-09-25T16:12:46.233Z,8.40
2017-09-25T16:15:14.440Z,9.77
2017-09-25T16:17:41.879Z,9.43
2017-09-25T16:20:09.314Z,7.17
2017-09-25T16:22:36.849Z,9.33
2017-09-25T16:25:04.284Z,8.57
2017-09-25T16:27:32.496Z,15.10
2017-09-25T16:29:59.938Z,12.67
2017-09-25T16:32:27.374Z,9.63
2017-09-25T16:34:55.564Z,8.13
2017-09-25T16:37:22.984Z,9.80
2017-09-25T16:39:50.420Z,9.80
2017-09-25T16:42:17.969Z,11.53
2017-09-25T16:44:45.411Z,10.67
2017-09-25T16:47:12.844Z,9.60
2017-09-25T16:49:40.277Z,9.80
2017-09-25T16:52:08.497Z,9.10
2017-09-25T16:54:35.932Z,8.80
2017-09-25T16:57:03.473Z,10.90
2017-09-25T16:59:30.897Z,8.90
2017-09-25T17:01:58.349Z,10.03
2017-09-25T17:04:25.789Z,8.73
2017-09-25T17:06:53.219Z,9.60
2017-09-25T17:09:20.783Z,7.97
2017-09-25T17:11:48.227Z,10.00
2017-09-25T17:14:16.425Z,8.77
2017-09-25T17:16:43.853Z,11.30
2017-09-25T17:19:12.062Z,13.07
2017-09-25T17:21:39.504Z,8.97
2017-09-25T17:24:06.946Z,11.50
2017-09-25T17:26:35.195Z,9.53
2017-09-25T17:29:02.642Z,11.47
2017-09-25T17:31:30.082Z,13.73
2017-09-25T17:33:57.515Z,11.90
2017-09-25T17:36:24.949Z,10.50
2017-09-25T17:38:53.153Z,11.90
2017-09-25T17:41:20.584Z,12.37
2017-09-25T17:43:48.013Z,8.60
2017-09-25T17:46:15.478Z,11.33
2017-09-25T17:48:42.908Z,11.50
2017-09-25T17:51:10.373Z,12.47
2017-09-25T17:53:37.835Z,14.00
2017-09-25T17:56:05.257Z,11.00
2017-09-25T17:58:32.693Z,11.67
2017-09-25T18:01:00.126Z,13.23
2017-09-25T18:03:28.330Z,11.43
2017-09-25T18:05:59.649Z,9.63
2017-09-25T18:08:27.855Z,12.17
2017-09-25T18:10:55.280Z,11.90
2017-09-25T18:13:27.440Z,13.83
2017-09-25T18:15:55.646Z,11.80
2017-09-25T18:18:23.077Z,12.00
2017-09-25T18:20:51.357Z,13.10
2017-09-25T18:23:19.564Z,11.17
2017-09-25T18:25:50.559Z,12.33
2017-09-25T18:28:17.990Z,13.23
2017-09-25T18:30:45.487Z,12.40
2017-09-25T18:33:13.684Z,17.13
2017-09-25T18:35:41.121Z,12.43
2017-09-25T18:38:09.345Z,12.00
2017-09-25T18:40:36.782Z,15.73
2017-09-25T18:43:06.249Z,14.00
2017-09-25T18:45:34.452Z,15.93
2017-09-25T18:48:03.951Z,19.63
2017-09-25T18:50:32.143Z,15.30
2017-09-25T18:52:59.580Z,18.20
2017-09-25T18:55:34.081Z,17.40
2017-09-25T18:58:02.357Z,14.37
2017-09-25T19:00:30.562Z,13.47
2017-09-25T19:03:00.059Z,12.73
2017-09-25T19:05:27.504Z,16.00
2017-09-25T19:07:54.947Z,14.83
2017-09-25T19:10:22.400Z,14.30
2017-09-25T19:12:49.828Z,16.03
2017-09-25T19:15:17.269Z,14.50
2017-09-25T19:17:45.695Z,13.77
2017-09-25T19:20:13.148Z,14.33
2017-09-25T19:22:47.133Z,15.30
2017-09-25T19:25:14.590Z,14.20
2017-09-25T19:27:42.033Z,12.83
2017-09-25T19:30:09.476Z,18.00
2017-09-25T19:32:36.925Z,13.83
2017-09-25T19:35:05.112Z,13.63
2017-09-25T19:37:32.648Z,15.73
2017-09-25T19:40:00.085Z,14.40
2017-09-25T19:42:28.281Z,13.73
2017-09-25T19:44:55.718Z,13.73
2017-09-25T19:47:23.917Z,16.03
2017-09-25T19:52:59.168Z,14.57
2017-09-25T19:55:43.293Z,13.90
2017-09-25T19:58:10.730Z,14.97
2017-09-25T20:00:38.173Z,14.40
2017-09-25T20:03:05.616Z,12.60
2017-09-25T20:05:33.042Z,15.40
2017-09-25T20:08:00.482Z,13.23
2017-09-25T20:10:28.320Z,11.23
2017-09-25T20:12:55.765Z,12.90
2017-09-25T20:18:23.092Z,13.77
2017-09-25T20:20:51.298Z,11.77
2017-09-25T20:23:19.745Z,14.40
2017-09-25T20:25:47.955Z,14.70
2017-09-25T20:28:15.387Z,10.90
2017-09-25T20:30:42.823Z,13.87
2017-09-25T20:33:11.034Z,14.97
2017-09-25T20:35:38.455Z,11.80
2017-09-25T20:38:06.671Z,14.37
2017-09-25T20:40:36.713Z,14.57
2017-09-25T20:43:06.106Z,14.13
2017-09-25T20:45:33.537Z,15.40
2017-09-25T20:48:00.980Z,12.77
2017-09-25T20:50:28.424Z,13.90
2017-09-25T20:52:56.640Z,13.30
2017-09-25T20:55:24.093Z,16.17
2017-09-25T20:57:51.537Z,16.23
2017-09-25T21:00:18.959Z,13.17
2017-09-25T21:02:47.168Z,16.30
2017-09-25T21:05:14.600Z,15.30
2017-09-25T21:07:42.816Z,18.00
2017-09-25T21:10:10.265Z,14.90
2017-09-25T21:12:37.706Z,13.17
2017-09-25T21:15:05.149Z,14.27
2017-09-25T21:17:33.362Z,15.40
2017-09-25T21:20:00.796Z,19.03
2017-09-25T21:22:28.817Z,17.10
2017-09-25T21:24:56.254Z,14.77
2017-09-25T21:27:24.241Z,17.47
2017-09-25T21:29:51.675Z,25.23
2017-09-25T21:32:19.110Z,18.57
2017-09-25T21:34:46.564Z,14.90
2017-09-25T21:37:14.002Z,16.03
2017-09-25T21:39:41.441Z,13.53
2017-09-25T21:42:08.879Z,12.77
2017-09-25T21:44:36.320Z,16.13
2017-09-25T21:47:03.748Z,15.87
2017-09-25T21:49:31.184Z,16.43
2017-09-25T21:51:59.379Z,13.73
2017-09-25T21:54:26.831Z,19.27
2017-09-25T21:56:54.264Z,19.20
2017-09-25T21:59:22.487Z,21.13
2017-09-25T22:01:49.904Z,19.63
2017-09-25T22:04:18.116Z,15.40
2017-09-25T22:06:45.555Z,20.27
2017-09-25T22:09:13.747Z,17.83
2017-09-25T22:11:41.179Z,20.20
2017-09-25T22:14:08.615Z,14.37
2017-09-25T22:16:36.825Z,17.43
2017-09-25T22:19:04.318Z,16.07
2017-09-25T22:21:31.761Z,15.53
2017-09-25T22:23:59.214Z,22.50
2017-09-25T22:26:26.644Z,19.57
2017-09-25T22:28:54.091Z,18.60
2017-09-25T22:31:22.293Z,22.60
2017-09-25T22:33:49.724Z,17.00
2017-09-25T22:36:17.169Z,17.30
2017-09-25T22:38:45.387Z,20.47
2017-09-25T22:41:12.837Z,16.50
2017-09-25T22:46:41.922Z,15.83
2017-09-25T22:49:20.900Z,16.10
2017-09-25T22:51:48.344Z,17.23
2017-09-25T22:54:15.799Z,16.47
2017-09-25T22:56:43.229Z,16.10
2017-09-25T22:59:10.664Z,19.77
2017-09-25T23:01:38.887Z,21.50
2017-09-25T23:04:12.722Z,15.87
2017-09-25T23:06:40.191Z,16.37
2017-09-25T23:09:07.618Z,15.53
2017-09-25T23:11:35.863Z,26.43
2017-09-25T23:14:03.322Z,16.17
2017-09-25T23:16:31.517Z,27.47
2017-09-25T23:18:58.944Z,23.13
2017-09-25T23:21:26.389Z,18.13
2017-09-25T23:23:53.817Z,19.03
2017-09-25T23:26:21.279Z,17.77
2017-09-25T23:28:48.725Z,15.50
2017-09-25T23:34:19.232Z,18.60
2017-09-25T23:36:46.667Z,20.87
2017-09-25T23:39:18.416Z,21.23
2017-09-25T23:41:45.848Z,24.27
2017-09-25T23:44:13.285Z,22.67
2017-09-25T23:46:40.734Z,20.23
2017-09-25T23:49:08.204Z,18.80
2017-09-25T23:51:35.643Z,23.97
2017-09-25T23:54:03.081Z,24.40
2017-09-25T23:56:30.516Z,25.80
2017-09-25T23:58:57.944Z,21.70
